Latest Coastal Weather Observations for Adelaide Airport

IDS60701

Issued at 3:41 am CDT Monday 30 March 2015 (issued every 10 minutes, with the page automatically refreshed every 10 minutes)

About coastal observations | Map of coastal stations | Coastal observations for SA | Marine services | Other Formats
Station Details ID: 023034 Name: ADELAIDE AIRPORT Lat: -34.95 Lon: 138.52 Height: 2.0 m
Data from the previous 72 hours. | See also: Recent months at Adelaide Airport
Date/Time
CDT
Temp

°C
Wind Pressure Rain
since 9am
mm
Weather Cloud Vis
km
Sea
Height
m
Swell
Dir
 
Speed
knots
Gust
knots
hPa Trend Height
m
Period
s
Dir
30/03:30am 13.7 SE 1 4 1022.9 - 0.0 - - 10 - - - -
30/03:00am 13.7 CALM 0 0 1023.0 R 0.0 Fine Clear 40 - - - -
30/02:30am 13.0 E 4 5 1023.3 - 0.0 - - 10 - - - -
30/02:00am 13.7 CALM 0 0 1023.6 - 0.0 - - 10 - - - -
30/01:30am 14.4 CALM 0 0 1023.6 - 0.0 - - 10 - - - -
30/01:00am 15.0 CALM 0 0 1023.7 - 0.0 - - 10 - - - -
30/12:30am 16.0 ESE 4 5 1023.7 - 0.0 - - 10 - - - -
 
Date/Time
CDT
Temp

°C
Wind Pressure Rain
since 9am
mm
Weather Cloud Vis
km
Sea
Height
m
Swell
Dir
 
Speed
knots
Gust
knots
hPa Trend Height
m
Period
s
Dir
29/11:30pm 16.8 SSE 5 5 1023.7 - 0.0 - - 10 - - - -
29/11:00pm 17.6 S 5 6 1023.9 - 0.0 - - 10 - - - -
29/10:30pm 17.7 SSW 6 7 1023.8 - 0.0 - - 10 - - - -
29/10:00pm 18.6 S 4 5 1023.6 - 0.0 - - 10 - - - -
29/09:30pm 19.2 SSW 5 6 1023.2 - 0.0 - - 10 - - - -
29/09:00pm 19.0 SSW 6 7 1022.9 F 0.0 Fine Partly cloudy 35 - - - -
29/08:30pm 19.6 S 5 6 1022.7 - 0.0 - Partly cloudy 10 - - - -
29/08:00pm 20.1 SSW 5 7 1022.6 - 0.0 - Cloudy 10 - - - -
29/07:30pm 19.6 SSW 6 7 1022.2 - 0.0 - Partly cloudy 10 - - - -
29/07:00pm 20.2 SSW 6 7 1022.1 - 0.0 - Partly cloudy 10 - - - -
29/06:30pm 21.2 SW 6 7 1021.9 - 0.0 - Cloudy 10 - - - -
29/06:00pm 22.3 WSW 6 8 1021.7 R 0.0 Fine Mostly cloudy 40 - - - -
29/05:30pm 23.8 WSW 5 8 1021.6 - 0.0 - Partly cloudy 10 - - - -
29/05:00pm 22.4 WSW 6 7 1021.5 - 0.0 - Cloudy 10 - - - -
29/04:30pm 22.4 SSW 7 8 1021.6 - 0.0 - Cloudy 10 - - - -
29/04:00pm 21.9 SW 9 12 1021.7 - 0.0 - Partly cloudy 10 - - - -
29/03:30pm 21.8 SW 8 10 1021.7 - 0.0 - - 10 - - - -
29/03:00pm 22.2 SW 8 10 1021.8 R 0.0 Fine Mostly cloudy 40 - - - -
29/02:30pm 22.5 WSW 8 9 1022.0 - 0.0 - Partly cloudy 10 - - - -
29/02:00pm 22.5 WSW 9 11 1022.3 - 0.0 - Partly cloudy 10 - - - -
29/01:30pm 22.7 W 7 9 1022.4 - 0.0 - Partly cloudy 10 - - - -
29/01:00pm 22.2 W 7 9 1022.7 - 0.0 - Cloudy 10 - - - -
29/12:30pm 22.1 W 8 10 1022.9 - 0.0 - Cloudy 10 - - - -
29/12:00pm 21.8 W 7 9 1023.0 R 0.0 Fine Mostly cloudy 35 - - - -
29/11:30am 22.2 NW 5 7 1023.0 - 0.0 - Cloudy 10 - - - -
29/11:00am 21.4 NE 5 7 1023.1 - 0.0 - Partly cloudy 10 - - - -
29/10:30am 20.6 NE 5 8 1023.3 - 0.0 - Cloudy 10 - - - -
29/10:00am 19.9 NE 7 8 1023.2 - 0.0 - Partly cloudy 10 - - - -
29/09:30am 18.3 NE 5 5 1023.3 - 0.0 - Cloudy 10 - - - -
29/09:00am 16.4 ENE 3 5 1022.9 R 0.0 Fine Mostly cloudy 35 - - - -
29/08:30am 15.2 E 4 4 1022.8 - 0.0 - - 10 - - - -
29/08:00am 14.1 ENE 5 5 1022.6 - 0.0 - - 10 - - - -
29/07:30am 13.4 NE 4 5 1022.2 - 0.0 - - 10 - - - -
29/07:00am 13.9 CALM 0 0 1021.9 - 0.0 - - 10 - - - -
29/06:30am 14.5 E 3 4 1021.4 - 0.0 - Partly cloudy 10 - - - -
29/06:00am 14.5 CALM 0 0 1021.4 R 0.0 Fine Mostly cloudy 40 - - - -
29/05:30am 14.5 E 2 4 1020.9 - 0.0 - Partly cloudy 10 - - - -
29/05:00am 15.0 NNE 5 5 1020.9 - 0.0 - - 10 - - - -
29/04:30am 14.6 CALM 0 0 1020.6 - 0.0 - Partly cloudy 10 - - - -
29/04:00am 14.1 CALM 0 0 1020.4 - 0.0 - Partly cloudy 10 - - - -
29/03:30am 13.8 NE 3 3 1020.6 - 0.0 - - 10 - - - -
29/03:00am 13.8 ENE 3 4 1021.0 R 0.0 Fine Mostly cloudy 40 - - - -
29/02:30am 13.6 SE 1 4 1021.2 - 0.0 - - 10 - - - -
29/02:00am 12.7 E 5 5 1021.5 - 0.0 - - 10 - - - -
29/01:30am 12.6 CALM 0 0 1021.7 - 0.0 - - 10 - - - -
29/01:00am 13.3 CALM 0 0 1021.7 - 0.0 - - 10 - - - -
29/12:30am 13.5 E 1 4 1021.5 - 0.0 - - 10 - - - -
29/12:00am 13.6 E 3 6 1021.5 F 0.0 Fine Mostly cloudy 40 - - - -
 
Date/Time
CDT
Temp

°C
Wind Pressure Rain
since 9am
mm
Weather Cloud Vis
km
Sea
Height
m
Swell
Dir
 
Speed
knots
Gust
knots
hPa Trend Height
m
Period
s
Dir
28/11:30pm 13.1 E 5 6 1021.7 - 0.0 - - 10 - - - -
28/11:00pm 14.2 E 5 6 1021.9 - 0.0 - - 10 - - - -
28/10:30pm 14.7 ESE 4 4 1022.1 - 0.0 - - 10 - - - -
28/10:00pm 15.5 ESE 4 5 1022.1 - 0.0 - - 10 - - - -
28/09:30pm 15.1 SE 4 4 1022.1 - 0.0 - - 10 - - - -
28/09:00pm 16.6 CALM 0 0 1021.7 F 0.0 Fine Mostly cloudy 40 - - - -
28/08:30pm 16.8 CALM 0 0 1021.6 - 0.0 - - 10 - - - -
28/08:00pm 18.1 CALM 0 0 1021.5 - 0.0 - - 10 - - - -
28/07:30pm 19.2 CALM 0 0 1021.3 - 0.0 - - 10 - - - -
28/07:00pm 20.2 SSW 3 4 1021.0 - 0.0 - - 10 - - - -
28/06:30pm 20.4 SW 4 4 1021.0 - 0.0 - - 10 - - - -
28/06:00pm 20.8 WSW 4 6 1020.6 F 0.0 Fine Mostly cloudy 40 - - - -
28/05:30pm 21.2 WSW 4 7 1020.6 - 0.0 - - 10 - - - -
28/05:00pm 21.2 WSW 4 6 1020.9 - 0.0 - - 10 - - - -
28/04:30pm 21.6 WNW 5 8 1021.3 - 0.0 - - 10 - - - -
28/04:00pm 21.3 W 6 8 1021.6 - 0.0 - - 10 - - - -
28/03:30pm 20.8 W 7 10 1022.0 - 0.0 - - 10 - - - -
28/03:00pm 20.1 W 8 9 1022.4 F 0.0 Fine Mostly cloudy 40 - - - -
28/02:30pm 20.0 W 9 13 1022.7 - 0.0 - - 10 - - - -
28/02:00pm 19.9 W 11 14 1023.0 - 0.0 - - 10 - - - -
28/01:30pm 20.7 WNW 7 9 1023.2 - 0.0 - - 10 - - - -
28/01:00pm 21.8 N 11 14 1023.5 - 0.0 - Mostly clear 10 - - - -
28/12:30pm 20.7 NNE 9 16 1024.0 - 0.0 - Mostly clear 10 - - - -
28/12:00pm 20.4 N 9 14 1024.5 F 0.0 Fine Mostly cloudy 40 - - - -
28/11:30am 19.1 N 8 13 1024.8 - 0.0 - Mostly clear 10 - - - -
28/11:00am 18.7 N 9 12 1025.1 - 0.0 - Mostly clear 10 - - - -
28/10:30am 17.6 NNE 8 13 1025.5 - 0.0 - Mostly clear 10 - - - -
28/10:00am 16.6 NE 8 11 1025.8 - 0.0 - - 10 - - - -
28/09:30am 14.9 NNE 5 6 1025.8 - 0.0 - - 10 - - - -
28/09:00am 13.1 NE 4 5 1025.9 F 0.0 Fine Mostly cloudy 35 - - - -
28/08:30am 11.7 NE 5 6 1025.5 - 0.0 - - 10 - - - -
28/08:00am 10.3 NE 4 5 1025.4 - 0.0 - Mostly clear 10 - - - -
28/07:30am 9.1 E 4 5 1025.3 - 0.0 - Mostly clear 10 - - - -
28/07:00am 9.4 ENE 3 4 1025.6 - 0.0 - - 10 - - - -
28/06:30am 9.2 NE 4 5 1025.5 - 0.0 - - 10 - - - -
28/06:00am 8.8 NE 4 4 1025.4 F 0.0 Fine Clear 30 - - - -
28/05:30am 9.2 CALM 0 0 1025.6 - 0.0 - - 10 - - - -
28/05:00am 9.1 CALM 0 0 1025.5 - 0.0 - - 10 - - - -
28/04:30am 9.5 CALM 0 3 1025.5 - 0.0 - - 10 - - - -
28/04:00am 10.4 NNW 2 5 1025.3 - 0.0 - - 10 - - - -
28/03:30am 10.7 CALM 0 0 1025.3 - 0.0 - Mostly clear 10 - - - -
28/03:00am 11.3 SSE 4 4 1025.3 F 0.0 Fine Mostly clear 30 - - - -
28/02:30am 11.2 SE 4 5 1025.7 - 0.0 - Mostly clear 10 - - - -
28/02:00am 11.6 S 5 5 1026.3 - 0.0 - Mostly clear 10 - - - -
28/01:30am 11.7 SSW 5 5 1026.6 - 0.0 - Mostly clear 10 - - - -
28/01:00am 11.9 S 3 5 1026.4 - 0.0 - Mostly clear 10 - - - -
28/12:30am 12.0 SE 4 4 1026.4 - 0.0 - Mostly clear 10 - - - -
28/12:00am 12.5 ESE 4 4 1026.7 F 0.0 Fine Mostly clear 30 - - - -
 
Date/Time
CDT
Temp

°C
Wind Pressure Rain
since 9am
mm
Weather Cloud Vis
km
Sea
Height
m
Swell
Dir
 
Speed
knots
Gust
knots
hPa Trend Height
m
Period
s
Dir
27/11:30pm 12.6 E 4 5 1026.9 - 0.0 - Mostly clear 10 - - - -
27/11:00pm 13.1 E 5 6 1027.1 - 0.0 - Mostly clear 10 - - - -
27/10:30pm 13.6 ESE 6 7 1027.3 - 0.0 - Mostly clear 10 - - - -
27/10:00pm 14.3 ESE 7 8 1027.2 - 0.0 - Mostly clear 10 - - - -
27/09:30pm 15.3 SE 9 13 1027.3 - 0.0 - Mostly clear 10 - - - -
27/09:00pm 16.4 SE 9 13 1027.1 F 0.0 Fine Mostly cloudy 30 - - - -
27/08:30pm 16.5 SSW 5 5 1026.8 - 0.0 - Mostly clear 10 - - - -
27/08:00pm 16.1 S 5 6 1026.6 - 0.0 - Mostly clear 10 - - - -
27/07:30pm 16.8 S 6 7 1026.5 - 0.0 - Mostly clear 10 - - - -
27/07:00pm 16.5 SSW 8 11 1026.5 - 0.0 - Mostly clear 10 - - - -
27/06:30pm 16.4 SSW 10 14 1026.4 - 0.0 - Mostly clear 10 - - - -
27/06:00pm 16.6 SSW 13 17 1026.6 R 0.0 Fine Mostly cloudy 30 - - - -
27/05:30pm 17.2 SSW 11 15 1026.4 - 0.0 - Mostly clear 10 - - - -
27/05:00pm 17.4 SSW 10 13 1026.3 - 0.0 - Mostly clear 10 - - - -
27/04:30pm 17.4 SSW 11 14 1026.4 - 0.0 - Mostly clear 10 - - - -
27/04:00pm 17.5 SW 13 17 1026.5 - 0.0 - Mostly clear 10 - - - -
27/03:30pm 17.1 SW 12 15 1026.7 - 0.0 - Mostly clear 10 - - - -
27/03:00pm 17.3 SW 13 16 1026.9 F 0.0 Fine Mostly cloudy 30 - - - -
27/02:30pm 17.8 SW 14 17 1027.1 - 0.0 - Mostly clear 10 - - - -
27/02:00pm 18.7 SW 14 18 1027.5 - 0.0 - Mostly clear 10 - - - -
27/01:30pm 17.8 SW 13 18 1027.8 - 0.0 - Mostly clear 10 - - - -
27/01:00pm 18.3 SW 13 17 1028.4 - 0.0 - Mostly clear 10 - - - -
27/12:30pm 18.6 WSW 10 13 1028.9 - 0.0 - Mostly clear 10 - - - -
27/12:00pm 17.1 WSW 10 12 1029.1 F 0.0 Fine Mostly cloudy 30 - - - -
27/11:30am 17.4 S 7 11 1029.4 - 0.0 - Mostly clear 10 - - - -
27/11:00am 16.6 S 7 15 1029.6 - 0.0 - Mostly clear 10 - - - -
27/10:30am 16.5 SSE 6 9 1029.7 - 0.0 - Mostly clear 10 - - - -
27/10:00am 16.2 SSE 7 10 1029.7 - 0.0 - Mostly clear 10 - - - -
27/09:30am 15.8 S 7 9 1029.6 - 0.0 - Mostly clear 10 - - - -
27/09:00am 15.4 S 10 15 1029.4 R 0.0 Distant precip. Cloudy 25 - - - -
27/08:30am 15.1 S 4 5 1029.2 - 0.0 - Mostly clear 10 - - - -
27/08:00am 14.8 S 5 7 1028.8 - 0.0 - Mostly clear 10 - - - -
27/07:30am 14.5 SSE 5 6 1028.5 - 0.0 - Mostly clear 10 - - - -
27/07:00am 14.3 SE 5 6 1028.1 - 0.0 - Mostly clear 10 - - - -
27/06:30am 14.5 SSE 3 5 1027.9 - 0.0 - Mostly clear 10 - - - -
27/06:00am 13.7 S 4 5 1027.6 F 0.0 Fine Cloudy 25 - - - -
27/05:30am 13.7 SE 4 6 1027.3 - 0.0 - Mostly clear 10 - - - -
27/05:00am 13.8 S 5 7 1027.4 - 0.0 - Mostly clear 10 - - - -
27/04:30am 13.4 ENE 1 3 1027.5 - 0.0 - Mostly clear 10 - - - -
27/04:00am 13.3 E 4 5 1027.5 - 0.0 - Mostly clear 10 - - - -

Other Formats:

Comma delimited format used in spreadsheet applications
http://www.bom.gov.au/fwo/IDS60701/IDS60701.94672.axf

JavaScript Object Notation format (JSON) in row-major order
http://www.bom.gov.au/fwo/IDS60701/IDS60701.94672.json